Time;durP1;ratioP1;P1;durP2;ratioP2;P2;SDS_P1;SDS_P2;PMS_P1;PMS_P2;Temp;Humidity;BMP_temperature;BMP_pressure;BME280_temperature;BME280_humidity;BME280_pressure;Samples;Min_cycle;Max_cycle;Signal;HPM_P1;HPM_P2
2023/03/07 00:00:44;;;;;;;18.45;9.55;;;6.00;99.90;;;;;;4987335;28;20076;-84
2023/03/07 00:03:14;;;;;;;22.35;10.00;;;6.00;99.90;;;;;;4994912;28;20341;-84
2023/03/07 00:05:40;;;;;;;18.08;9.73;;;6.10;99.90;;;;;;4995201;28;20026;-84
2023/03/07 00:08:06;;;;;;;16.40;8.50;;;6.00;99.90;;;;;;5014869;28;20120;-84
2023/03/07 00:10:32;;;;;;;18.88;9.00;;;6.10;99.90;;;;;;4998940;28;20042;-85
2023/03/07 00:12:58;;;;;;;13.27;8.07;;;6.00;99.90;;;;;;5014255;28;20203;-84
2023/03/07 00:15:23;;;;;;;12.43;7.47;;;6.00;99.90;;;;;;4989585;28;20315;-86
2023/03/07 00:17:51;;;;;;;16.33;8.45;;;6.00;99.90;;;;;;4992173;28;20028;-84
2023/03/07 00:20:19;;;;;;;13.25;7.85;;;6.00;99.90;;;;;;4993931;28;20034;-86
2023/03/07 00:22:45;;;;;;;12.07;6.95;;;5.90;99.90;;;;;;5002066;28;20089;-87
2023/03/07 00:25:12;;;;;;;12.15;7.32;;;5.90;99.90;;;;;;5015149;28;20029;-83
2023/03/07 00:27:38;;;;;;;12.00;7.55;;;6.00;99.90;;;;;;5008530;28;20367;-83
2023/03/07 00:30:04;;;;;;;10.18;7.20;;;6.00;99.90;;;;;;4995470;28;20091;-82
2023/03/07 00:32:30;;;;;;;11.90;6.50;;;6.00;99.90;;;;;;5006941;28;20045;-83
2023/03/07 00:34:58;;;;;;;9.57;6.47;;;6.00;99.90;;;;;;4994323;28;20034;-83
2023/03/07 00:37:24;;;;;;;7.28;5.30;;;6.00;99.90;;;;;;5000536;28;20038;-82
2023/03/07 00:39:49;;;;;;;10.23;5.75;;;6.00;99.90;;;;;;5010253;28;20085;-81
2023/03/07 00:42:15;;;;;;;10.10;5.20;;;6.00;99.90;;;;;;5015160;28;20048;-83
2023/03/07 00:44:40;;;;;;;6.70;4.95;;;6.00;99.90;;;;;;5011831;28;20041;-85
2023/03/07 00:47:06;;;;;;;6.50;5.10;;;5.90;99.90;;;;;;5010389;28;20034;-84
2023/03/07 00:49:32;;;;;;;8.20;6.15;;;6.00;99.90;;;;;;5008836;28;20045;-85
2023/03/07 00:51:58;;;;;;;8.80;6.18;;;6.00;99.90;;;;;;5009575;28;20036;-89
2023/03/07 00:54:24;;;;;;;8.73;5.63;;;6.00;99.90;;;;;;4990895;28;20061;-82
2023/03/07 00:56:49;;;;;;;10.05;5.35;;;6.10;99.90;;;;;;5008065;28;20057;-86
2023/03/07 00:59:15;;;;;;;8.27;6.47;;;6.00;99.90;;;;;;5006684;28;20028;-84
2023/03/07 01:01:40;;;;;;;8.40;5.57;;;6.10;99.90;;;;;;5008912;28;20264;-84
2023/03/07 01:04:06;;;;;;;10.05;6.18;;;6.00;99.90;;;;;;5004233;28;20040;-85
2023/03/07 01:06:32;;;;;;;10.63;5.45;;;6.10;99.90;;;;;;4987952;28;20014;-84
2023/03/07 01:09:00;;;;;;;9.80;6.35;;;6.00;99.90;;;;;;4987666;28;20418;-86
2023/03/07 01:11:27;;;;;;;9.82;5.70;;;6.00;99.90;;;;;;4990908;28;20138;-85
2023/03/07 01:13:58;;;;;;;7.75;5.60;;;6.00;99.90;;;;;;5008364;28;20014;-85
2023/03/07 01:16:27;;;;;;;6.85;5.63;;;6.00;99.90;;;;;;5005555;28;20030;-83
2023/03/07 01:18:56;;;;;;;6.15;5.30;;;6.00;99.90;;;;;;5005967;28;20018;-83
2023/03/07 01:21:23;;;;;;;6.10;4.78;;;6.10;99.90;;;;;;5004970;28;20947;-84
2023/03/07 01:23:49;;;;;;;7.53;4.93;;;6.00;99.90;;;;;;5005143;28;20029;-85
2023/03/07 01:26:19;;;;;;;7.68;4.50;;;6.00;99.90;;;;;;4989330;28;20084;-85
2023/03/07 01:28:46;;;;;;;6.25;5.22;;;6.10;99.90;;;;;;5006647;28;20060;-84
2023/03/07 01:31:12;;;;;;;8.63;4.82;;;6.10;99.90;;;;;;4988441;28;20116;-85
2023/03/07 01:33:37;;;;;;;6.88;5.07;;;6.10;99.90;;;;;;5005077;28;20095;-83
2023/03/07 01:36:04;;;;;;;7.28;4.72;;;6.10;99.90;;;;;;5006725;28;20682;-84
2023/03/07 01:38:32;;;;;;;7.28;4.20;;;6.10;99.90;;;;;;5019853;28;20021;-83
2023/03/07 01:41:02;;;;;;;5.57;4.00;;;6.00;99.90;;;;;;5029127;28;20037;-83
2023/03/07 01:43:32;;;;;;;5.40;3.42;;;6.00;99.90;;;;;;5013422;28;20312;-83
2023/03/07 01:46:16;;;;;;;6.38;3.90;;;6.00;99.90;;;;;;5010140;28;20030;-84
2023/03/07 01:48:50;;;;;;;4.50;3.70;;;6.00;99.90;;;;;;5007403;28;20053;-85
2023/03/07 01:51:17;;;;;;;3.30;2.90;;;5.90;99.90;;;;;;4988185;28;20022;-84
2023/03/07 01:53:44;;;;;;;6.40;3.58;;;6.00;99.90;;;;;;5005018;28;20112;-84
2023/03/07 01:56:10;;;;;;;5.53;3.75;;;6.00;99.90;;;;;;4987232;28;20120;-85
2023/03/07 01:58:38;;;;;;;4.00;3.60;;;6.00;99.90;;;;;;4986377;28;20050;-84
2023/03/07 02:01:08;;;;;;;4.22;3.80;;;6.00;99.90;;;;;;4985771;28;20061;-84
2023/03/07 02:03:38;;;;;;;6.72;3.55;;;6.10;99.90;;;;;;4982953;28;20022;-85
2023/03/07 02:06:08;;;;;;;4.75;3.28;;;6.00;99.90;;;;;;4988673;28;20030;-84
2023/03/07 02:08:35;;;;;;;4.93;3.22;;;6.00;99.90;;;;;;5004464;28;20093;-84
2023/03/07 02:11:01;;;;;;;3.53;2.70;;;5.90;99.90;;;;;;4986681;28;20049;-83
2023/03/07 02:13:27;;;;;;;3.40;2.58;;;5.90;99.90;;;;;;5003879;28;20018;-84
2023/03/07 02:15:52;;;;;;;3.08;2.78;;;5.90;99.90;;;;;;4987729;28;20029;-82
2023/03/07 02:18:23;;;;;;;3.35;3.05;;;5.90;99.90;;;;;;5002235;28;20038;-83
2023/03/07 02:21:04;;;;;;;3.95;2.75;;;5.90;99.90;;;;;;4995315;28;20017;-83
2023/03/07 02:23:42;;;;;;;3.58;2.60;;;5.90;99.90;;;;;;5004086;28;20090;-84
2023/03/07 02:26:29;;;;;;;2.70;2.50;;;5.90;99.90;;;;;;4988559;28;20033;-84
2023/03/07 02:28:56;;;;;;;2.63;2.25;;;5.90;99.90;;;;;;4982840;28;20885;-84
2023/03/07 02:31:23;;;;;;;3.45;2.30;;;5.90;99.90;;;;;;5006230;28;20037;-84
2023/03/07 02:33:48;;;;;;;2.58;1.98;;;5.90;99.90;;;;;;4990030;28;20319;-83
2023/03/07 02:36:28;;;;;;;2.28;1.90;;;5.90;99.90;;;;;;4995644;28;20443;-84
2023/03/07 02:38:56;;;;;;;4.45;2.22;;;5.80;99.90;;;;;;5009469;28;20026;-84
2023/03/07 02:41:27;;;;;;;2.28;1.60;;;5.70;99.90;;;;;;4991208;28;20029;-83
2023/03/07 02:43:52;;;;;;;2.22;1.70;;;5.80;99.90;;;;;;4987794;28;20414;-84
2023/03/07 02:46:19;;;;;;;2.40;2.20;;;5.70;99.90;;;;;;5005805;28;20072;-83
2023/03/07 02:48:45;;;;;;;2.05;1.85;;;5.80;99.90;;;;;;5004826;28;20205;-84
2023/03/07 02:51:11;;;;;;;2.85;2.42;;;5.80;99.90;;;;;;4983899;28;20030;-84
2023/03/07 02:53:36;;;;;;;2.20;1.92;;;5.80;99.90;;;;;;5005006;28;20022;-83
2023/03/07 02:56:02;;;;;;;4.45;2.58;;;5.90;99.90;;;;;;4987233;28;20116;-83
2023/03/07 02:58:28;;;;;;;3.00;1.73;;;5.90;99.90;;;;;;5003028;28;20018;-84
2023/03/07 03:00:54;;;;;;;3.92;1.92;;;5.80;99.90;;;;;;4986782;28;20071;-84
2023/03/07 03:03:22;;;;;;;4.32;2.40;;;5.70;99.90;;;;;;5002749;28;20026;-84
2023/03/07 03:05:48;;;;;;;4.25;2.90;;;5.80;99.90;;;;;;5005592;28;20022;-83
2023/03/07 03:08:13;;;;;;;2.67;2.30;;;5.80;99.90;;;;;;4979348;28;20033;-83
2023/03/07 03:10:39;;;;;;;3.58;2.72;;;5.80;99.90;;;;;;5003259;28;20159;-83
2023/03/07 03:13:05;;;;;;;3.70;2.63;;;5.80;99.90;;;;;;5004577;28;20504;-85
2023/03/07 03:15:30;;;;;;;5.70;2.90;;;5.80;99.90;;;;;;5003765;28;20280;-85
2023/03/07 03:17:56;;;;;;;7.55;3.33;;;5.80;99.90;;;;;;5003975;28;20033;-83
2023/03/07 03:20:24;;;;;;;4.70;3.30;;;5.80;99.90;;;;;;4986192;28;20022;-84
2023/03/07 03:22:51;;;;;;;4.43;3.08;;;5.80;99.90;;;;;;4983794;28;20398;-83
2023/03/07 03:25:16;;;;;;;5.18;3.00;;;5.80;99.90;;;;;;5004119;28;20014;-80
2023/03/07 03:27:44;;;;;;;5.55;3.40;;;5.90;99.90;;;;;;4985488;28;20034;-84
2023/03/07 03:30:12;;;;;;;4.50;3.00;;;5.80;99.90;;;;;;4980170;28;20553;-83
2023/03/07 03:32:39;;;;;;;6.00;3.83;;;5.80;99.90;;;;;;5003161;28;20024;-85
2023/03/07 03:35:06;;;;;;;4.80;3.50;;;5.80;99.90;;;;;;4988009;28;20393;-85
2023/03/07 03:37:32;;;;;;;4.47;3.42;;;5.80;99.90;;;;;;5002210;28;20474;-84
2023/03/07 03:39:58;;;;;;;6.22;3.47;;;5.80;99.90;;;;;;5005402;28;20021;-83
2023/03/07 03:42:24;;;;;;;4.18;3.20;;;5.90;99.90;;;;;;5002786;28;20018;-83
2023/03/07 03:44:49;;;;;;;3.60;2.97;;;5.80;99.90;;;;;;4986872;28;20025;-83
2023/03/07 03:47:15;;;;;;;4.53;3.45;;;5.80;99.90;;;;;;5004370;28;20057;-84
2023/03/07 03:49:41;;;;;;;5.63;3.50;;;5.80;99.90;;;;;;5002924;28;20034;-85
2023/03/07 03:52:07;;;;;;;3.60;3.28;;;5.80;99.90;;;;;;4986436;28;20454;-84
2023/03/07 03:54:32;;;;;;;5.10;3.08;;;5.80;99.90;;;;;;5002268;28;20025;-84
2023/03/07 03:57:00;;;;;;;3.75;3.15;;;5.70;99.90;;;;;;5002823;28;20028;-83
2023/03/07 03:59:26;;;;;;;4.38;3.33;;;5.70;99.90;;;;;;5004160;28;20097;-83
2023/03/07 04:01:55;;;;;;;2.95;2.10;;;5.60;99.90;;;;;;5004685;28;20160;-83
2023/03/07 04:04:21;;;;;;;6.80;2.75;;;5.60;99.90;;;;;;4987996;28;20026;-84
2023/03/07 04:06:47;;;;;;;3.88;3.15;;;5.60;99.90;;;;;;4991903;28;20464;-85
2023/03/07 04:09:13;;;;;;;3.67;3.15;;;5.60;99.90;;;;;;4989863;28;20029;-85
2023/03/07 04:11:38;;;;;;;3.67;3.03;;;5.60;99.90;;;;;;5007602;28;20041;-84
2023/03/07 04:14:04;;;;;;;3.80;3.13;;;5.60;99.90;;;;;;4990523;28;20392;-84
2023/03/07 04:16:30;;;;;;;4.97;3.50;;;5.60;99.90;;;;;;4983153;28;20501;-85
2023/03/07 04:18:56;;;;;;;4.32;3.92;;;5.60;99.90;;;;;;5007846;28;20063;-85
2023/03/07 04:21:22;;;;;;;5.00;3.80;;;5.60;99.90;;;;;;5007942;28;20061;-83
2023/03/07 04:23:54;;;;;;;4.78;3.78;;;5.60;99.90;;;;;;4983580;28;20049;-84
2023/03/07 04:26:20;;;;;;;4.38;3.78;;;5.50;99.90;;;;;;5009586;28;20489;-85
2023/03/07 04:28:45;;;;;;;4.15;3.67;;;5.50;99.90;;;;;;5008704;28;20032;-84
2023/03/07 04:31:20;;;;;;;3.83;3.30;;;5.50;99.90;;;;;;5008583;28;20061;-84
2023/03/07 04:33:49;;;;;;;4.00;3.45;;;5.50;99.90;;;;;;4977850;28;20053;-83
2023/03/07 04:36:15;;;;;;;4.22;3.10;;;5.50;99.90;;;;;;5007095;28;20029;-83
2023/03/07 04:38:41;;;;;;;3.80;3.20;;;5.50;99.90;;;;;;4993576;28;20018;-84
2023/03/07 04:41:12;;;;;;;4.20;3.30;;;5.40;99.90;;;;;;4989721;28;20044;-84
2023/03/07 04:43:38;;;;;;;4.00;3.05;;;5.40;99.90;;;;;;5012928;28;20022;-85
2023/03/07 04:46:03;;;;;;;3.58;3.13;;;5.40;99.90;;;;;;4989122;28;20033;-83
2023/03/07 04:48:29;;;;;;;3.17;2.85;;;5.40;99.90;;;;;;4995806;28;20406;-84
2023/03/07 04:50:57;;;;;;;3.67;3.20;;;5.40;99.90;;;;;;5011892;28;20042;-83
2023/03/07 04:53:23;;;;;;;3.53;3.22;;;5.40;99.90;;;;;;5020110;28;20286;-83
2023/03/07 04:55:48;;;;;;;3.58;2.83;;;5.40;99.90;;;;;;5003856;28;20114;-83
2023/03/07 04:58:19;;;;;;;3.65;3.03;;;5.40;99.90;;;;;;5023531;28;20488;-83
2023/03/07 05:00:45;;;;;;;5.18;3.38;;;5.40;99.90;;;;;;5030477;28;20014;-83
2023/03/07 05:03:12;;;;;;;3.15;2.88;;;5.40;99.90;;;;;;5015861;28;20018;-82
2023/03/07 05:05:38;;;;;;;3.58;3.20;;;5.30;99.90;;;;;;5031054;28;20025;-84
2023/03/07 05:08:04;;;;;;;3.80;3.38;;;5.30;99.90;;;;;;5013627;28;20030;-83
2023/03/07 05:10:34;;;;;;;4.38;3.15;;;5.40;99.90;;;;;;4991669;28;20474;-83
2023/03/07 05:13:00;;;;;;;4.13;3.17;;;5.40;99.90;;;;;;5021654;28;20072;-83
2023/03/07 05:15:27;;;;;;;5.32;3.80;;;5.40;99.90;;;;;;5031263;28;20038;-83
2023/03/07 05:17:52;;;;;;;4.47;3.15;;;5.40;99.90;;;;;;5030171;28;20006;-83
2023/03/07 05:20:22;;;;;;;4.53;3.63;;;5.30;99.90;;;;;;5019660;28;20032;-83
2023/03/07 05:22:48;;;;;;;4.18;3.15;;;5.30;99.90;;;;;;4989569;28;20022;-83
2023/03/07 05:25:13;;;;;;;4.78;3.45;;;5.30;99.90;;;;;;4990692;28;20080;-84
2023/03/07 05:27:41;;;;;;;3.75;3.35;;;5.40;99.90;;;;;;4990325;28;20509;-85
2023/03/07 05:30:08;;;;;;;5.30;3.40;;;5.30;99.90;;;;;;5008694;28;20289;-84
2023/03/07 05:32:34;;;;;;;5.88;3.10;;;5.40;99.90;;;;;;5010015;28;20022;-84
2023/03/07 05:35:02;;;;;;;4.25;3.42;;;5.40;99.90;;;;;;5022001;28;20101;-84
2023/03/07 05:37:27;;;;;;;5.82;3.42;;;5.50;99.90;;;;;;5012100;28;20037;-82
2023/03/07 05:39:53;;;;;;;3.90;3.25;;;5.50;99.90;;;;;;4998464;28;20026;-84
2023/03/07 05:42:19;;;;;;;3.60;2.83;;;5.40;99.90;;;;;;4992748;28;20033;-85
2023/03/07 05:44:44;;;;;;;3.35;3.05;;;5.40;99.90;;;;;;5011643;28;20037;-85
2023/03/07 05:47:10;;;;;;;3.80;3.22;;;5.50;99.90;;;;;;5019637;28;20040;-84
2023/03/07 05:49:35;;;;;;;4.82;2.92;;;5.40;99.90;;;;;;5030491;28;20088;-85
2023/03/07 05:52:01;;;;;;;3.17;2.55;;;5.50;99.90;;;;;;5032422;28;20098;-83
2023/03/07 05:54:27;;;;;;;5.28;3.35;;;5.40;99.90;;;;;;5030671;28;20030;-84
2023/03/07 05:56:52;;;;;;;4.50;3.10;;;5.40;99.90;;;;;;5015713;28;20052;-84
2023/03/07 05:59:18;;;;;;;6.25;3.42;;;5.40;99.90;;;;;;5012828;28;20036;-81
2023/03/07 06:01:44;;;;;;;4.95;3.17;;;5.40;99.90;;;;;;4999046;28;20018;-80
2023/03/07 06:04:10;;;;;;;4.60;3.55;;;5.40;99.90;;;;;;4981218;28;20105;-82
2023/03/07 06:06:35;;;;;;;3.85;3.13;;;5.40;99.90;;;;;;4986783;28;20154;-80
2023/03/07 06:09:03;;;;;;;4.82;3.35;;;5.50;99.90;;;;;;5003708;28;20072;-81
2023/03/07 06:11:28;;;;;;;4.53;2.72;;;5.40;99.90;;;;;;4988636;28;20065;-82
2023/03/07 06:13:54;;;;;;;4.72;3.22;;;5.40;99.90;;;;;;5004735;28;20449;-83
2023/03/07 06:16:22;;;;;;;5.47;3.08;;;5.40;99.90;;;;;;5001373;28;20034;-82
2023/03/07 06:18:48;;;;;;;3.03;2.72;;;5.40;99.90;;;;;;5003428;28;20087;-82
2023/03/07 06:21:16;;;;;;;4.25;3.33;;;5.40;99.90;;;;;;4989663;28;20482;-81
2023/03/07 06:23:42;;;;;;;3.92;3.22;;;5.40;99.90;;;;;;4987814;28;20021;-81
2023/03/07 06:26:09;;;;;;;4.05;3.30;;;5.30;99.90;;;;;;4989444;28;20458;-80
2023/03/07 06:28:35;;;;;;;4.80;3.35;;;5.30;99.90;;;;;;4988556;28;20022;-82
2023/03/07 06:31:10;;;;;;;6.10;3.15;;;5.30;99.90;;;;;;4988459;28;20136;-80
2023/03/07 06:33:35;;;;;;;5.18;3.35;;;5.40;99.90;;;;;;5006890;28;20286;-81
2023/03/07 06:36:08;;;;;;;3.92;3.00;;;5.40;99.90;;;;;;4988762;28;20054;-81
2023/03/07 06:38:34;;;;;;;4.50;2.92;;;5.40;99.90;;;;;;5006284;28;20018;-81
2023/03/07 06:41:00;;;;;;;5.22;3.25;;;5.40;99.90;;;;;;5006795;28;20057;-81
2023/03/07 06:43:26;;;;;;;4.93;2.88;;;5.40;99.90;;;;;;5005943;28;20575;-82
2023/03/07 06:45:52;;;;;;;3.50;2.65;;;5.50;99.90;;;;;;4991190;28;20113;-82
2023/03/07 06:48:17;;;;;;;4.78;3.13;;;5.50;99.90;;;;;;5003284;28;20489;-82
2023/03/07 06:50:44;;;;;;;5.53;4.00;;;5.50;99.90;;;;;;4981837;28;20055;-82
2023/03/07 06:53:09;;;;;;;6.68;4.03;;;5.60;99.90;;;;;;4989049;28;20156;-82
2023/03/07 06:55:35;;;;;;;4.47;3.53;;;5.50;99.90;;;;;;4989317;28;20363;-81
2023/03/07 06:58:00;;;;;;;5.53;3.85;;;5.50;99.90;;;;;;5006962;28;20025;-82
2023/03/07 07:00:26;;;;;;;6.88;4.28;;;5.50;99.90;;;;;;4996042;28;20026;-83
2023/03/07 07:02:52;;;;;;;6.20;3.65;;;5.50;99.90;;;;;;4986026;28;20027;-81
2023/03/07 07:05:17;;;;;;;6.75;4.30;;;5.50;99.90;;;;;;4987738;28;20018;-81
2023/03/07 07:07:43;;;;;;;6.57;3.95;;;5.40;99.90;;;;;;5002152;28;20061;-82
2023/03/07 07:10:09;;;;;;;7.43;4.03;;;5.50;99.90;;;;;;4984397;28;20053;-81
2023/03/07 07:12:35;;;;;;;5.32;4.25;;;5.40;99.90;;;;;;5002923;28;20025;-82
2023/03/07 07:15:04;;;;;;;7.45;4.60;;;5.40;99.90;;;;;;5006058;28;20044;-81
2023/03/07 07:17:31;;;;;;;5.45;4.20;;;5.30;99.90;;;;;;5002641;28;20033;-81
2023/03/07 07:19:57;;;;;;;4.75;4.10;;;5.20;99.90;;;;;;5006330;28;20044;-81
2023/03/07 07:22:23;;;;;;;7.03;3.97;;;5.10;99.90;;;;;;5003758;28;20093;-82
2023/03/07 07:24:49;;;;;;;9.80;4.50;;;5.00;99.90;;;;;;4991153;28;20030;-81
2023/03/07 07:27:14;;;;;;;4.97;4.38;;;4.90;99.90;;;;;;4988828;28;20018;-80
2023/03/07 07:29:40;;;;;;;6.47;4.65;;;4.90;99.90;;;;;;5004664;28;20300;-81
2023/03/07 07:32:06;;;;;;;6.32;4.40;;;4.90;99.90;;;;;;4993839;28;20109;-81
2023/03/07 07:34:32;;;;;;;6.47;4.57;;;5.00;99.90;;;;;;5009834;28;20033;-82
2023/03/07 07:36:57;;;;;;;6.32;4.20;;;5.00;99.90;;;;;;5010604;28;20030;-79
2023/03/07 07:39:23;;;;;;;7.07;4.38;;;5.00;99.90;;;;;;5008631;28;20480;-80
2023/03/07 07:41:49;;;;;;;12.52;5.70;;;5.00;99.90;;;;;;5008019;28;20022;-84
2023/03/07 07:44:15;;;;;;;6.28;3.85;;;5.00;99.90;;;;;;5007178;28;20033;-81
2023/03/07 07:46:41;;;;;;;5.05;4.00;;;5.00;99.90;;;;;;5008561;28;20089;-82
2023/03/07 07:49:07;;;;;;;4.50;4.10;;;5.00;99.90;;;;;;5003913;28;20042;-84
2023/03/07 07:51:32;;;;;;;6.90;4.25;;;4.90;99.90;;;;;;5008061;28;20531;-82
2023/03/07 07:53:59;;;;;;;19.60;7.22;;;4.80;99.90;;;;;;5006922;28;20037;-79
2023/03/07 07:56:25;;;;;;;6.07;4.50;;;4.70;99.90;;;;;;5008236;28;20034;-83
2023/03/07 07:58:50;;;;;;;7.45;4.82;;;4.70;99.90;;;;;;5009462;28;20255;-81
2023/03/07 08:01:20;;;;;;;5.68;5.03;;;4.60;99.90;;;;;;4990767;28;20030;-81
2023/03/07 08:03:46;;;;;;;6.35;4.60;;;4.60;99.90;;;;;;5007557;28;20493;-81
2023/03/07 08:06:16;;;;;;;6.55;5.03;;;4.60;99.90;;;;;;4990422;28;20172;-81
2023/03/07 08:08:44;;;;;;;6.75;5.03;;;4.70;99.90;;;;;;4989236;28;20088;-82
2023/03/07 08:11:10;;;;;;;6.13;5.05;;;4.80;99.90;;;;;;4988363;28;20042;-82
2023/03/07 08:13:40;;;;;;;9.63;5.95;;;4.80;99.90;;;;;;4994090;28;20018;-81
2023/03/07 08:16:17;;;;;;;10.45;5.38;;;4.70;99.90;;;;;;4992301;28;20064;-82
2023/03/07 08:18:50;;;;;;;8.27;5.70;;;4.60;99.90;;;;;;5003195;28;20029;-82
2023/03/07 08:21:16;;;;;;;7.13;4.72;;;4.60;99.90;;;;;;4987346;28;20713;-83
2023/03/07 08:23:44;;;;;;;7.13;5.40;;;4.70;99.90;;;;;;4990446;28;20030;-80
2023/03/07 08:26:12;;;;;;;6.88;5.57;;;4.80;99.90;;;;;;4987382;28;20030;-80
2023/03/07 08:28:38;;;;;;;6.07;4.90;;;4.70;99.90;;;;;;4989713;28;20029;-81
2023/03/07 08:31:11;;;;;;;6.30;4.90;;;4.70;99.90;;;;;;4986244;28;20065;-83
2023/03/07 08:33:37;;;;;;;8.07;3.53;;;4.80;99.90;;;;;;4997366;28;20014;-82
2023/03/07 08:36:04;;;;;;;2.90;2.60;;;4.70;99.90;;;;;;4989754;28;20501;-83
2023/03/07 08:38:30;;;;;;;2.45;2.25;;;4.60;99.90;;;;;;4989768;28;20026;-82
2023/03/07 08:41:05;;;;;;;5.05;2.38;;;4.60;99.90;;;;;;5008741;28;20386;-82
2023/03/07 08:43:33;;;;;;;4.50;2.10;;;4.60;99.90;;;;;;5008882;28;20022;-82
2023/03/07 08:45:59;;;;;;;4.25;2.20;;;4.50;99.90;;;;;;5009494;28;20018;-81
2023/03/07 08:48:25;;;;;;;3.40;2.47;;;4.40;99.90;;;;;;5005228;28;20281;-83
2023/03/07 08:50:52;;;;;;;6.43;2.58;;;4.40;99.90;;;;;;4991853;28;20029;-82
2023/03/07 08:53:18;;;;;;;2.60;2.40;;;4.50;99.90;;;;;;5008419;28;21092;-83
2023/03/07 08:55:44;;;;;;;4.38;2.15;;;4.40;99.90;;;;;;4992538;28;20280;-82
2023/03/07 08:58:10;;;;;;;5.50;2.20;;;4.30;99.90;;;;;;5010143;28;20034;-83
2023/03/07 09:00:39;;;;;;;5.45;2.50;;;4.20;99.90;;;;;;4986476;28;20030;-80
2023/03/07 09:03:05;;;;;;;2.83;1.77;;;4.20;99.90;;;;;;5007048;28;20573;-80
2023/03/07 09:05:40;;;;;;;5.38;1.67;;;4.30;99.90;;;;;;4991559;28;20728;-82
2023/03/07 09:08:06;;;;;;;1.35;1.25;;;4.20;99.90;;;;;;4986804;28;20026;-83
2023/03/07 09:10:34;;;;;;;3.05;1.70;;;4.10;99.90;;;;;;5009809;28;20057;-81
2023/03/07 09:12:59;;;;;;;3.53;1.88;;;4.00;99.90;;;;;;5007188;28;20030;-81
2023/03/07 09:15:26;;;;;;;2.65;1.90;;;4.00;99.90;;;;;;5001901;28;20412;-83
2023/03/07 09:17:51;;;;;;;3.80;1.70;;;3.90;99.90;;;;;;5005331;28;20024;-84
2023/03/07 09:20:17;;;;;;;4.50;2.25;;;3.90;99.90;;;;;;4993304;28;20030;-82
2023/03/07 09:22:45;;;;;;;4.40;2.30;;;3.80;99.90;;;;;;4993444;28;20037;-79
2023/03/07 09:25:11;;;;;;;2.30;2.15;;;3.80;99.90;;;;;;4992628;28;20672;-82
2023/03/07 09:27:37;;;;;;;3.08;2.72;;;3.80;99.90;;;;;;4991807;28;20034;-81
2023/03/07 09:30:05;;;;;;;3.70;2.33;;;3.80;99.90;;;;;;4981136;28;20495;-82
2023/03/07 09:32:32;;;;;;;2.65;2.45;;;3.80;99.90;;;;;;5005343;28;20049;-82
2023/03/07 09:34:58;;;;;;;3.67;2.63;;;3.80;99.90;;;;;;5006312;28;20585;-82
2023/03/07 09:37:23;;;;;;;4.63;2.67;;;3.90;99.90;;;;;;4991382;28;20180;-81
2023/03/07 09:39:51;;;;;;;5.10;2.30;;;3.90;99.90;;;;;;5003670;28;20040;-82
2023/03/07 09:42:34;;;;;;;3.05;2.30;;;4.00;99.90;;;;;;5005331;28;20022;-81
2023/03/07 09:45:41;;;;;;;2.28;1.63;;;4.10;99.90;;;;;;4980472;28;20053;-81
2023/03/07 09:48:33;;;;;;;5.82;1.90;;;4.10;99.90;;;;;;4957473;28;20136;-81
2023/03/07 09:51:02;;;;;;;3.65;2.45;;;4.30;99.90;;;;;;5004624;28;20046;-82
2023/03/07 09:53:48;;;;;;;2.15;1.95;;;4.30;99.90;;;;;;4987360;28;20025;-82
2023/03/07 09:56:32;;;;;;;2.75;2.00;;;4.30;99.90;;;;;;5005546;28;20510;-82
2023/03/07 09:59:23;;;;;;;2.42;2.22;;;4.30;99.90;;;;;;5003980;28;20030;-79
2023/03/07 10:01:54;;;;;;;4.93;2.78;;;4.10;99.90;;;;;;5003399;28;20014;-79
2023/03/07 10:04:37;;;;;;;2.67;2.47;;;4.10;99.90;;;;;;5000377;28;20022;-84
2023/03/07 10:07:04;;;;;;;2.17;2.08;;;4.20;99.90;;;;;;5003224;28;20473;-83
2023/03/07 10:09:30;;;;;;;2.95;2.65;;;4.10;99.90;;;;;;4989907;28;20089;-84
2023/03/07 10:12:22;;;;;;;2.90;2.38;;;4.30;99.90;;;;;;5008222;28;20247;-82
2023/03/07 10:15:09;;;;;;;3.08;2.35;;;4.20;99.90;;;;;;4979523;28;20034;-82
2023/03/07 10:17:40;;;;;;;2.78;2.42;;;4.20;99.90;;;;;;4990260;28;20073;-82
2023/03/07 10:20:23;;;;;;;2.80;2.47;;;4.20;99.90;;;;;;5005981;28;20113;-82
2023/03/07 10:22:55;;;;;;;2.25;2.05;;;4.20;99.90;;;;;;5003208;28;20041;-82
2023/03/07 10:25:40;;;;;;;3.55;2.15;;;4.20;99.90;;;;;;4996871;28;20454;-83
2023/03/07 10:28:23;;;;;;;2.20;2.00;;;4.30;99.90;;;;;;5004867;28;20022;-83
2023/03/07 10:30:58;;;;;;;2.85;2.10;;;4.30;99.90;;;;;;4988525;28;20662;-82
2023/03/07 10:33:27;;;;;;;2.13;1.92;;;4.40;99.90;;;;;;5009811;28;20088;-82
2023/03/07 10:36:06;;;;;;;2.40;1.98;;;4.50;99.90;;;;;;4983224;28;20469;-80
2023/03/07 10:38:43;;;;;;;3.33;1.90;;;4.40;99.90;;;;;;5007860;28;20032;-83
2023/03/07 10:41:16;;;;;;;1.60;1.50;;;4.50;99.90;;;;;;4981195;28;20577;-83
2023/03/07 10:43:44;;;;;;;2.22;1.70;;;4.50;99.90;;;;;;4981208;28;20092;-82
2023/03/07 10:46:20;;;;;;;3.95;2.25;;;4.60;99.90;;;;;;4997819;28;20025;-82
2023/03/07 10:49:21;;;;;;;2.67;2.20;;;4.60;99.90;;;;;;4996875;28;20356;-82
2023/03/07 10:52:14;;;;;;;2.90;1.92;;;4.70;99.90;;;;;;5003663;28;20288;-82
2023/03/07 10:54:40;;;;;;;;;;;4.70;99.90;;;;;;4986971;28;20442;-82
2023/03/07 10:57:11;;;;;;;5.13;2.00;;;4.70;99.90;;;;;;4985827;28;20148;-82
2023/03/07 10:59:48;;;;;;;3.55;1.90;;;4.80;99.90;;;;;;4992855;28;20022;-82
2023/03/07 11:02:35;;;;;;;2.38;2.17;;;4.80;99.90;;;;;;5015448;28;20155;-82
2023/03/07 11:05:16;;;;;;;2.70;2.15;;;4.90;99.90;;;;;;5015784;28;20044;-80
2023/03/07 11:07:42;;;;;;;3.30;2.45;;;4.80;99.90;;;;;;5009178;28;20030;-80
2023/03/07 11:10:35;;;;;;;4.85;3.15;;;4.80;99.90;;;;;;4998096;28;20030;-80
2023/03/07 11:13:14;;;;;;;5.35;3.38;;;4.90;99.90;;;;;;5009695;28;20095;-81
2023/03/07 11:15:40;;;;;;;5.30;3.55;;;5.00;99.90;;;;;;4989942;28;20075;-81
2023/03/07 11:18:31;;;;;;;4.40;3.25;;;5.00;99.90;;;;;;5005382;28;20033;-82
2023/03/07 11:20:58;;;;;;;6.43;3.60;;;5.00;99.90;;;;;;4989186;28;20022;-82
2023/03/07 11:23:26;;;;;;;5.10;3.38;;;5.00;99.90;;;;;;5010099;28;20040;-81
2023/03/07 11:25:54;;;;;;;5.80;2.10;;;5.10;99.90;;;;;;5009201;28;20117;-81
2023/03/07 11:28:32;;;;;;;3.50;2.40;;;5.10;99.90;;;;;;4992199;28;20018;-81
2023/03/07 11:31:02;;;;;;;3.42;2.88;;;5.10;99.90;;;;;;5003582;28;20061;-81
2023/03/07 11:34:03;;;;;;;4.72;2.60;;;5.20;99.90;;;;;;4993571;28;20482;-80
2023/03/07 11:36:33;;;;;;;4.55;2.72;;;5.30;99.90;;;;;;4992235;28;20100;-81
2023/03/07 11:39:24;;;;;;;3.03;2.42;;;5.30;99.90;;;;;;4991930;28;20045;-81
2023/03/07 11:42:02;;;;;;;2.35;2.00;;;5.30;99.90;;;;;;5007850;28;20022;-81
2023/03/07 11:44:44;;;;;;;4.60;2.78;;;5.40;99.90;;;;;;5007325;28;20287;-81
2023/03/07 11:47:15;;;;;;;5.22;2.67;;;5.40;99.90;;;;;;4988892;28;20524;-81
2023/03/07 11:50:06;;;;;;;3.58;3.00;;;5.40;99.90;;;;;;5007117;28;20038;-82
2023/03/07 11:52:40;;;;;;;5.25;3.05;;;5.70;99.90;;;;;;4985462;28;20460;-81
2023/03/07 11:55:34;;;;;;;4.90;3.20;;;5.90;99.90;;;;;;4992611;28;20030;-81
2023/03/07 11:58:23;;;;;;;4.53;3.10;;;6.00;99.90;;;;;;5004225;28;20489;-81
2023/03/07 12:00:58;;;;;;;3.90;3.00;;;6.20;99.90;;;;;;5006874;28;20022;-81
2023/03/07 12:03:26;;;;;;;10.80;4.78;;;6.20;99.90;;;;;;5009199;28;20033;-80
2023/03/07 12:06:23;;;;;;;5.78;2.63;;;6.30;99.90;;;;;;5001091;28;20038;-81
2023/03/07 12:09:16;;;;;;;3.22;2.55;;;6.20;99.90;;;;;;5007390;28;20093;-82
2023/03/07 12:11:48;;;;;;;;;;;6.20;99.90;;;;;;4985939;28;20046;-81
2023/03/07 12:14:28;;;;;;;4.40;2.50;;;6.20;99.90;;;;;;5008139;28;19921;-81
2023/03/07 12:17:25;;;;;;;2.97;2.40;;;6.20;99.90;;;;;;4989213;28;20045;-81
2023/03/07 12:20:06;;;;;;;4.28;2.20;;;6.30;99.90;;;;;;4993880;28;20026;-81
2023/03/07 12:22:53;;;;;;;3.13;2.83;;;6.30;99.90;;;;;;5002450;28;20030;-81
2023/03/07 12:25:51;;;;;;;3.10;2.30;;;6.30;99.90;;;;;;4988393;28;20030;-81
2023/03/07 12:28:21;;;;;;;3.92;2.70;;;6.00;99.90;;;;;;4992354;28;20025;-82
2023/03/07 12:31:05;;;;;;;4.97;2.88;;;5.90;99.90;;;;;;5008193;28;20038;-81
2023/03/07 12:33:55;;;;;;;3.10;2.45;;;5.80;99.90;;;;;;5005525;28;20388;-82
2023/03/07 12:36:25;;;;;;;2.53;2.33;;;5.90;99.90;;;;;;4990880;28;20026;-80
2023/03/07 12:39:20;;;;;;;2.80;2.60;;;5.80;99.90;;;;;;5006386;28;20478;-82
2023/03/07 12:42:27;;;;;;;3.17;2.45;;;5.80;99.90;;;;;;5003780;28;20029;-81
2023/03/07 12:45:44;;;;;;;5.65;3.03;;;5.70;99.90;;;;;;5005535;28;20022;-83
2023/03/07 12:48:27;;;;;;;4.57;2.45;;;5.80;99.90;;;;;;4950884;28;20019;-80
2023/03/07 12:51:03;;;;;;;4.40;2.55;;;5.70;99.90;;;;;;4966779;28;20043;-80
2023/03/07 12:53:37;;;;;;;3.28;2.30;;;5.70;99.90;;;;;;4965887;28;20057;-81
2023/03/07 12:56:18;;;;;;;4.35;2.22;;;5.80;99.90;;;;;;4965562;28;20127;-81
2023/03/07 12:58:49;;;;;;;5.35;1.92;;;5.60;99.90;;;;;;4949671;28;20062;-82
2023/03/07 13:01:34;;;;;;;7.63;2.63;;;5.50;99.90;;;;;;4966218;28;20031;-81
2023/03/07 13:04:17;;;;;;;3.28;2.10;;;5.60;99.90;;;;;;4965746;28;20046;-84
2023/03/07 13:06:44;;;;;;;21.52;6.97;;;5.70;99.90;;;;;;4964524;28;20047;-80
2023/03/07 13:09:21;;;;;;;2.90;2.40;;;5.70;99.90;;;;;;4963834;28;20070;-79
2023/03/07 13:12:24;;;;;;;5.07;2.75;;;5.80;99.90;;;;;;4964476;28;20050;-81
2023/03/07 13:14:56;;;;;;;3.08;1.98;;;6.00;99.90;;;;;;4963874;28;20087;-81